createdAt,value
2018-09-10T00:03:37.644Z,21.89
2018-09-10T00:09:32.677Z,26.94
2018-09-10T00:15:27.632Z,24.18
2018-09-10T00:21:22.697Z,18.82
2018-09-10T00:27:17.655Z,19.87
2018-09-10T00:33:12.661Z,18.62
2018-09-10T00:39:07.644Z,24.78
2018-09-10T00:45:02.661Z,17.58
2018-09-10T00:50:57.666Z,20.95
2018-09-10T00:56:52.653Z,18
2018-09-10T01:02:47.665Z,16.97
2018-09-10T01:08:42.663Z,18.84
2018-09-10T01:14:37.666Z,18.47
2018-09-10T01:20:32.701Z,19.13
2018-09-10T01:26:27.691Z,20.97
2018-09-10T01:32:22.683Z,17.67
2018-09-10T01:38:17.689Z,21.79
2018-09-10T01:44:12.739Z,15.92
2018-09-10T01:50:07.704Z,18.14
2018-09-10T01:56:02.744Z,16.76
2018-09-10T02:01:57.711Z,18.05
2018-09-10T02:07:52.703Z,20.23
2018-09-10T02:13:47.702Z,18.11
2018-09-10T02:19:42.692Z,20.86
2018-09-10T02:25:37.713Z,24.35
2018-09-10T02:31:32.739Z,22.1
2018-09-10T02:37:27.715Z,22.59
2018-09-10T02:43:22.801Z,23.42
2018-09-10T02:49:17.772Z,22.17
2018-09-10T02:55:12.841Z,20.22
2018-09-10T03:01:07.761Z,30.92
2018-09-10T03:07:02.761Z,24.07
2018-09-10T03:12:57.828Z,22.45
2018-09-10T03:18:52.754Z,27.97
2018-09-10T03:24:47.737Z,24.02
2018-09-10T03:30:42.746Z,19.76
2018-09-10T03:36:37.764Z,19.3
2018-09-10T03:42:32.774Z,21.43
2018-09-10T03:48:27.758Z,22.06
2018-09-10T03:54:22.770Z,22.17
2018-09-10T04:00:17.847Z,20.58
2018-09-10T04:06:12.805Z,19.69
2018-09-10T04:12:07.787Z,18.15
2018-09-10T04:18:02.831Z,18.78
2018-09-10T04:23:57.795Z,15.94
2018-09-10T04:29:52.793Z,12.97
2018-09-10T04:35:47.857Z,15.05
2018-09-10T04:41:42.815Z,16.38
2018-09-10T04:47:37.818Z,22.32
2018-09-10T04:53:32.809Z,15.65
2018-09-10T04:59:27.840Z,18.29
2018-09-10T05:05:22.835Z,22.81
2018-09-10T05:11:17.870Z,16.91
2018-09-10T05:17:12.823Z,18.7
2018-09-10T05:23:07.821Z,17.08
2018-09-10T05:29:02.840Z,22.46
2018-09-10T05:34:57.831Z,17.09
2018-09-10T05:40:52.834Z,20.15
2018-09-10T05:46:47.844Z,22.53
2018-09-10T05:52:42.896Z,20.49
2018-09-10T05:58:37.935Z,22.13
2018-09-10T06:04:32.880Z,18.96
2018-09-10T06:10:27.901Z,19.96
2018-09-10T06:16:22.877Z,19.47
2018-09-10T06:22:17.997Z,17.37
2018-09-10T06:28:12.864Z,22.38
2018-09-10T06:34:07.985Z,22.56
2018-09-10T06:40:02.892Z,18.36
2018-09-10T06:45:57.882Z,16.44
2018-09-10T06:51:52.911Z,12.87
2018-09-10T06:57:47.930Z,12.12
2018-09-10T07:03:42.906Z,10.91
2018-09-10T07:09:37.929Z,10.21
2018-09-10T07:15:32.920Z,12.25
2018-09-10T07:21:27.904Z,11.23
2018-09-10T07:27:22.917Z,9.43
2018-09-10T07:33:17.920Z,10.28
2018-09-10T07:39:12.904Z,13.79
2018-09-10T07:45:07.958Z,12.65
2018-09-10T07:51:02.897Z,16.44
2018-09-10T07:56:57.903Z,18.49
2018-09-10T08:02:52.944Z,15.69
2018-09-10T08:08:47.929Z,13.04
2018-09-10T08:14:42.925Z,9.63
2018-09-10T08:20:37.954Z,11.38
2018-09-10T08:26:32.944Z,13.8
2018-09-10T08:32:27.951Z,10.9
2018-09-10T08:38:22.983Z,9.93
2018-09-10T08:44:17.967Z,10.27
2018-09-10T08:50:12.951Z,11.68
2018-09-10T08:56:08.029Z,12.2
2018-09-10T09:02:03.049Z,9
2018-09-10T09:07:58.076Z,12.27
2018-09-10T09:13:52.975Z,9.52
2018-09-10T09:19:47.989Z,12.12
2018-09-10T09:25:43.014Z,8.75
2018-09-10T09:31:37.964Z,10.25
2018-09-10T09:37:32.998Z,6.7
2018-09-10T09:43:28.032Z,7.88
2018-09-10T09:49:22.993Z,9.92
2018-09-10T09:55:18.019Z,7.51
2018-09-10T10:01:12.992Z,8.03
2018-09-10T10:07:07.989Z,9.88
2018-09-10T10:13:03.008Z,8.08
2018-09-10T10:18:58.025Z,7.6
2018-09-10T10:24:53.007Z,7.6
2018-09-10T10:30:48.008Z,9.11
2018-09-10T10:36:43.071Z,7.6
2018-09-10T10:42:38.016Z,10.04
2018-09-10T10:48:33.047Z,8.42
2018-09-10T10:54:28.043Z,8.45
2018-09-10T11:00:23.044Z,9.15
2018-09-10T11:06:18.027Z,6.27
2018-09-10T11:12:13.031Z,5.71
2018-09-10T11:18:08.100Z,6.36
2018-09-10T11:24:03.030Z,4.19
2018-09-10T11:29:58.094Z,7.54
2018-09-10T11:35:53.037Z,4.96
2018-09-10T11:41:48.080Z,6.29
2018-09-10T11:47:43.085Z,7.98
2018-09-10T11:53:38.092Z,6.14
2018-09-10T11:59:33.093Z,7.81
2018-09-10T12:05:28.078Z,5.83
2018-09-10T12:11:23.083Z,5.38
2018-09-10T12:17:18.087Z,5.53
2018-09-10T12:23:13.078Z,3.47
2018-09-10T12:29:08.093Z,3.74
2018-09-10T12:35:03.132Z,3.71
2018-09-10T12:40:58.123Z,4.16
2018-09-10T12:46:53.092Z,4.9
2018-09-10T12:52:48.103Z,4.07
2018-09-10T12:58:43.204Z,5.12
2018-09-10T13:04:38.089Z,5.06
2018-09-10T13:10:33.197Z,5.8
2018-09-10T13:16:28.117Z,5.5
2018-09-10T13:22:23.118Z,5.73
2018-09-10T13:28:18.137Z,8.87
2018-09-10T13:34:13.139Z,6.04
2018-09-10T13:40:08.119Z,4.23
2018-09-10T13:46:03.183Z,7.7
2018-09-10T13:51:58.175Z,6
2018-09-10T13:57:53.137Z,7.21
2018-09-10T14:03:48.183Z,7.99
2018-09-10T14:09:43.133Z,5.72
2018-09-10T14:15:38.170Z,4.47
2018-09-10T14:21:33.210Z,7.54
2018-09-10T14:27:28.176Z,6.25
2018-09-10T14:33:23.209Z,8.46
2018-09-10T14:39:18.143Z,4.5
2018-09-10T14:45:13.233Z,8.26
2018-09-10T14:51:08.185Z,5.84
2018-09-10T14:57:03.195Z,6.85
2018-09-10T15:02:58.191Z,4.72
2018-09-10T15:08:53.220Z,4.38
2018-09-10T15:14:48.178Z,7.02
2018-09-10T15:20:43.191Z,5.74
2018-09-10T15:26:38.185Z,4.75
2018-09-10T15:32:33.247Z,5
2018-09-10T15:38:28.218Z,3.93
2018-09-10T15:44:23.304Z,5.19
2018-09-10T15:50:18.234Z,5.42
2018-09-10T15:56:13.220Z,9.92
2018-09-10T16:02:08.235Z,5.23
2018-09-10T16:08:03.240Z,6.69
2018-09-10T16:13:58.248Z,7.97
2018-09-10T16:19:53.273Z,8.3
2018-09-10T16:25:48.312Z,4.67
2018-09-10T16:31:43.285Z,11
2018-09-10T16:37:38.244Z,14.13
2018-09-10T16:43:33.260Z,11.9
2018-09-10T16:49:28.249Z,7.83
2018-09-10T16:55:23.258Z,10.18
2018-09-10T17:01:18.293Z,9.1
2018-09-10T17:07:13.258Z,6.24
2018-09-10T17:13:08.263Z,19.11
2018-09-10T17:19:03.281Z,8.79
2018-09-10T17:24:58.272Z,13.37
2018-09-10T17:30:53.305Z,7.53
2018-09-10T17:36:48.279Z,11.54
2018-09-10T17:42:43.287Z,18.35
2018-09-10T17:48:38.288Z,14.14
2018-09-10T17:54:33.317Z,11.03
2018-09-10T18:00:28.315Z,14.01
2018-09-10T18:06:23.353Z,13.03
2018-09-10T18:12:18.320Z,15.44
2018-09-10T18:18:13.308Z,11.39
2018-09-10T18:24:08.311Z,12.82
2018-09-10T18:30:03.309Z,10.37
2018-09-10T18:35:58.350Z,9.01
2018-09-10T18:41:53.382Z,8.17
2018-09-10T18:47:48.326Z,9.33
2018-09-10T18:53:43.337Z,8.25
2018-09-10T18:59:38.371Z,9.08
2018-09-10T19:05:33.389Z,8.73
2018-09-10T19:11:28.340Z,11.23
2018-09-10T19:17:23.346Z,9.91
2018-09-10T19:23:18.408Z,10.72
2018-09-10T19:29:13.390Z,7.9
2018-09-10T19:35:08.362Z,10.3
2018-09-10T19:41:03.374Z,9.77
2018-09-10T19:46:58.368Z,9.63
2018-09-10T19:52:53.376Z,14.64
2018-09-10T19:58:48.377Z,13.49
2018-09-10T20:04:43.377Z,16.74
2018-09-10T20:10:38.392Z,16.58
2018-09-10T20:16:33.452Z,16.83
2018-09-10T20:22:28.404Z,16.95
2018-09-10T20:28:23.420Z,13.96
2018-09-10T20:34:18.403Z,16.42
2018-09-10T20:40:13.437Z,21.83
2018-09-10T20:46:08.398Z,16.09
2018-09-10T20:52:03.444Z,16.57
2018-09-10T20:57:58.398Z,16.58
2018-09-10T21:03:53.424Z,12.81
2018-09-10T21:09:48.471Z,45.44
2018-09-10T21:15:43.441Z,75.43
2018-09-10T21:21:38.470Z,14.54
2018-09-10T21:27:33.465Z,13.9
2018-09-10T21:33:28.423Z,14.19
2018-09-10T21:39:23.438Z,12.67
2018-09-10T21:45:18.458Z,14.65
2018-09-10T21:51:13.485Z,12.5
2018-09-10T21:57:08.453Z,14.86
2018-09-10T22:03:03.485Z,12.34
2018-09-10T22:08:58.453Z,11.77
2018-09-10T22:14:53.461Z,12.35
2018-09-10T22:20:48.445Z,12.48
2018-09-10T22:26:43.462Z,11.9
2018-09-10T22:32:38.517Z,13
2018-09-10T22:38:33.468Z,13.91
2018-09-10T22:44:28.538Z,15.63
2018-09-10T22:50:23.492Z,18.62
2018-09-10T22:56:18.491Z,18.19
2018-09-10T23:02:13.487Z,14.57
2018-09-10T23:08:08.504Z,17.82
2018-09-10T23:14:03.511Z,12.34
2018-09-10T23:19:58.487Z,17.2
2018-09-10T23:25:53.513Z,12.22
2018-09-10T23:31:48.500Z,13.65
2018-09-10T23:37:43.515Z,12.75
2018-09-10T23:43:38.553Z,14.75
2018-09-10T23:49:33.521Z,13.04
2018-09-10T23:55:28.516Z,16.01
